sensor_id;sensor_type;location;lat;lon;timestamp;P1;durP1;ratioP1;P2;durP2;ratioP2
78072;SDS011;67281;48.770;11.440;2024-02-28T00:00:38;20.73;;;15.73;;
78072;SDS011;67281;48.770;11.440;2024-02-28T00:03:09;21.15;;;15.75;;
78072;SDS011;67281;48.770;11.440;2024-02-28T00:05:42;22.23;;;15.67;;
78072;SDS011;67281;48.770;11.440;2024-02-28T00:08:12;20.23;;;15.70;;
78072;SDS011;67281;48.770;11.440;2024-02-28T00:10:44;19.88;;;15.35;;
78072;SDS011;67281;48.770;11.440;2024-02-28T00:13:14;20.48;;;15.18;;
78072;SDS011;67281;48.770;11.440;2024-02-28T00:15:47;19.83;;;15.57;;
78072;SDS011;67281;48.770;11.440;2024-02-28T00:18:17;20.52;;;15.82;;
78072;SDS011;67281;48.770;11.440;2024-02-28T00:20:49;20.23;;;15.07;;
78072;SDS011;67281;48.770;11.440;2024-02-28T00:23:21;22.37;;;16.20;;
78072;SDS011;67281;48.770;11.440;2024-02-28T00:25:51;20.20;;;15.87;;
78072;SDS011;67281;48.770;11.440;2024-02-28T00:28:21;21.63;;;16.03;;
78072;SDS011;67281;48.770;11.440;2024-02-28T00:30:51;23.43;;;17.03;;
78072;SDS011;67281;48.770;11.440;2024-02-28T00:33:21;22.95;;;16.50;;
78072;SDS011;67281;48.770;11.440;2024-02-28T00:35:54;20.13;;;14.87;;
78072;SDS011;67281;48.770;11.440;2024-02-28T00:38:24;21.73;;;16.57;;
78072;SDS011;67281;48.770;11.440;2024-02-28T00:40:54;21.40;;;14.87;;
78072;SDS011;67281;48.770;11.440;2024-02-28T00:43:24;24.83;;;18.40;;
78072;SDS011;67281;48.770;11.440;2024-02-28T00:45:54;22.80;;;16.67;;
78072;SDS011;67281;48.770;11.440;2024-02-28T00:48:25;21.70;;;16.13;;
78072;SDS011;67281;48.770;11.440;2024-02-28T00:50:58;23.40;;;16.83;;
78072;SDS011;67281;48.770;11.440;2024-02-28T00:53:28;22.27;;;16.55;;
78072;SDS011;67281;48.770;11.440;2024-02-28T00:55:59;22.70;;;17.73;;
78072;SDS011;67281;48.770;11.440;2024-02-28T00:58:29;22.70;;;17.17;;
78072;SDS011;67281;48.770;11.440;2024-02-28T01:00:59;24.77;;;17.93;;
78072;SDS011;67281;48.770;11.440;2024-02-28T01:03:29;23.67;;;17.23;;
78072;SDS011;67281;48.770;11.440;2024-02-28T01:06:02;23.00;;;17.70;;
78072;SDS011;67281;48.770;11.440;2024-02-28T01:08:33;22.52;;;17.00;;
78072;SDS011;67281;48.770;11.440;2024-02-28T01:11:03;25.17;;;16.87;;
78072;SDS011;67281;48.770;11.440;2024-02-28T01:13:33;24.23;;;16.73;;
78072;SDS011;67281;48.770;11.440;2024-02-28T01:16:03;22.83;;;17.87;;
78072;SDS011;67281;48.770;11.440;2024-02-28T01:18:33;21.63;;;16.80;;
78072;SDS011;67281;48.770;11.440;2024-02-28T01:21:06;22.97;;;17.37;;
78072;SDS011;67281;48.770;11.440;2024-02-28T01:23:36;24.97;;;18.33;;
78072;SDS011;67281;48.770;11.440;2024-02-28T01:26:06;23.77;;;17.17;;
78072;SDS011;67281;48.770;11.440;2024-02-28T01:28:36;22.50;;;17.07;;
78072;SDS011;67281;48.770;11.440;2024-02-28T01:31:06;22.90;;;17.60;;
78072;SDS011;67281;48.770;11.440;2024-02-28T01:33:36;23.77;;;17.83;;
78072;SDS011;67281;48.770;11.440;2024-02-28T01:36:10;21.15;;;16.80;;
78072;SDS011;67281;48.770;11.440;2024-02-28T01:38:41;23.67;;;16.47;;
78072;SDS011;67281;48.770;11.440;2024-02-28T01:41:11;24.20;;;17.20;;
78072;SDS011;67281;48.770;11.440;2024-02-28T01:43:41;24.13;;;17.50;;
78072;SDS011;67281;48.770;11.440;2024-02-28T01:46:16;23.90;;;17.52;;
78072;SDS011;67281;48.770;11.440;2024-02-28T01:48:52;24.80;;;18.10;;
78072;SDS011;67281;48.770;11.440;2024-02-28T01:51:26;24.97;;;18.30;;
78072;SDS011;67281;48.770;11.440;2024-02-28T01:53:57;26.88;;;19.65;;
78072;SDS011;67281;48.770;11.440;2024-02-28T01:56:28;28.27;;;20.03;;
78072;SDS011;67281;48.770;11.440;2024-02-28T01:59:00;27.87;;;20.10;;
78072;SDS011;67281;48.770;11.440;2024-02-28T02:01:31;28.10;;;20.53;;
78072;SDS011;67281;48.770;11.440;2024-02-28T02:04:01;26.50;;;19.37;;
78072;SDS011;67281;48.770;11.440;2024-02-28T02:06:36;26.93;;;19.47;;
78072;SDS011;67281;48.770;11.440;2024-02-28T02:09:08;28.27;;;19.77;;
78072;SDS011;67281;48.770;11.440;2024-02-28T02:11:39;28.83;;;20.67;;
78072;SDS011;67281;48.770;11.440;2024-02-28T02:14:09;26.90;;;19.30;;
78072;SDS011;67281;48.770;11.440;2024-02-28T02:16:40;27.95;;;20.23;;
78072;SDS011;67281;48.770;11.440;2024-02-28T02:19:10;26.70;;;20.00;;
78072;SDS011;67281;48.770;11.440;2024-02-28T02:21:43;27.75;;;21.10;;
78072;SDS011;67281;48.770;11.440;2024-02-28T02:24:22;26.40;;;19.07;;
78072;SDS011;67281;48.770;11.440;2024-02-28T02:26:54;27.80;;;20.33;;
78072;SDS011;67281;48.770;11.440;2024-02-28T02:29:25;26.30;;;19.47;;
78072;SDS011;67281;48.770;11.440;2024-02-28T02:31:55;27.77;;;20.97;;
78072;SDS011;67281;48.770;11.440;2024-02-28T02:34:25;28.27;;;20.50;;
78072;SDS011;67281;48.770;11.440;2024-02-28T02:36:55;28.23;;;20.43;;
78072;SDS011;67281;48.770;11.440;2024-02-28T02:39:28;30.27;;;21.03;;
78072;SDS011;67281;48.770;11.440;2024-02-28T02:41:59;29.00;;;20.57;;
78072;SDS011;67281;48.770;11.440;2024-02-28T02:44:29;27.90;;;19.93;;
78072;SDS011;67281;48.770;11.440;2024-02-28T02:46:59;27.83;;;20.47;;
78072;SDS011;67281;48.770;11.440;2024-02-28T02:49:29;29.47;;;20.60;;
78072;SDS011;67281;48.770;11.440;2024-02-28T02:51:59;27.25;;;20.33;;
78072;SDS011;67281;48.770;11.440;2024-02-28T02:54:32;28.50;;;19.93;;
78072;SDS011;67281;48.770;11.440;2024-02-28T02:57:03;28.63;;;21.07;;
78072;SDS011;67281;48.770;11.440;2024-02-28T02:59:34;27.70;;;20.33;;
78072;SDS011;67281;48.770;11.440;2024-02-28T03:02:05;28.67;;;20.83;;
78072;SDS011;67281;48.770;11.440;2024-02-28T03:04:35;29.90;;;20.70;;
78072;SDS011;67281;48.770;11.440;2024-02-28T03:07:06;27.97;;;19.47;;
78072;SDS011;67281;48.770;11.440;2024-02-28T03:09:39;25.77;;;19.27;;
78072;SDS011;67281;48.770;11.440;2024-02-28T03:12:09;26.30;;;19.60;;
78072;SDS011;67281;48.770;11.440;2024-02-28T03:14:39;26.47;;;19.90;;
78072;SDS011;67281;48.770;11.440;2024-02-28T03:17:09;27.90;;;20.20;;
78072;SDS011;67281;48.770;11.440;2024-02-28T03:19:39;26.27;;;19.47;;
78072;SDS011;67281;48.770;11.440;2024-02-28T03:22:09;26.07;;;19.53;;
78072;SDS011;67281;48.770;11.440;2024-02-28T03:24:42;26.98;;;20.20;;
78072;SDS011;67281;48.770;11.440;2024-02-28T03:27:13;23.98;;;18.00;;
78072;SDS011;67281;48.770;11.440;2024-02-28T03:29:43;26.90;;;19.60;;
78072;SDS011;67281;48.770;11.440;2024-02-28T03:32:13;25.60;;;18.53;;
78072;SDS011;67281;48.770;11.440;2024-02-28T03:34:43;25.20;;;18.50;;
78072;SDS011;67281;48.770;11.440;2024-02-28T03:37:13;26.57;;;19.37;;
78072;SDS011;67281;48.770;11.440;2024-02-28T03:39:46;26.70;;;19.77;;
78072;SDS011;67281;48.770;11.440;2024-02-28T03:42:17;26.20;;;19.13;;
78072;SDS011;67281;48.770;11.440;2024-02-28T03:44:48;23.80;;;17.43;;
78072;SDS011;67281;48.770;11.440;2024-02-28T03:47:18;24.23;;;18.73;;
78072;SDS011;67281;48.770;11.440;2024-02-28T03:49:48;25.23;;;19.33;;
78072;SDS011;67281;48.770;11.440;2024-02-28T03:52:18;25.23;;;19.03;;
78072;SDS011;67281;48.770;11.440;2024-02-28T03:54:51;25.50;;;19.17;;
78072;SDS011;67281;48.770;11.440;2024-02-28T03:57:21;25.93;;;18.77;;
78072;SDS011;67281;48.770;11.440;2024-02-28T03:59:51;27.10;;;19.27;;
78072;SDS011;67281;48.770;11.440;2024-02-28T04:02:21;26.27;;;19.97;;
78072;SDS011;67281;48.770;11.440;2024-02-28T04:04:52;23.03;;;16.93;;
78072;SDS011;67281;48.770;11.440;2024-02-28T04:07:22;24.50;;;17.93;;
78072;SDS011;67281;48.770;11.440;2024-02-28T04:09:54;24.45;;;18.60;;
78072;SDS011;67281;48.770;11.440;2024-02-28T04:12:24;26.33;;;19.00;;
78072;SDS011;67281;48.770;11.440;2024-02-28T04:14:54;26.80;;;18.73;;
78072;SDS011;67281;48.770;11.440;2024-02-28T04:17:25;29.00;;;20.23;;
78072;SDS011;67281;48.770;11.440;2024-02-28T04:19:55;26.07;;;19.20;;
78072;SDS011;67281;48.770;11.440;2024-02-28T04:22:29;25.97;;;19.43;;
78072;SDS011;67281;48.770;11.440;2024-02-28T04:25:01;26.07;;;19.93;;
78072;SDS011;67281;48.770;11.440;2024-02-28T04:27:32;26.60;;;18.75;;
78072;SDS011;67281;48.770;11.440;2024-02-28T04:30:03;25.47;;;18.17;;
78072;SDS011;67281;48.770;11.440;2024-02-28T04:32:33;28.53;;;20.47;;
78072;SDS011;67281;48.770;11.440;2024-02-28T04:35:05;26.47;;;19.87;;
78072;SDS011;67281;48.770;11.440;2024-02-28T04:37:36;27.53;;;19.93;;
78072;SDS011;67281;48.770;11.440;2024-02-28T04:40:09;27.90;;;19.70;;
78072;SDS011;67281;48.770;11.440;2024-02-28T04:42:40;27.40;;;18.93;;
78072;SDS011;67281;48.770;11.440;2024-02-28T04:45:11;26.00;;;19.63;;
78072;SDS011;67281;48.770;11.440;2024-02-28T04:47:41;28.20;;;19.43;;
78072;SDS011;67281;48.770;11.440;2024-02-28T04:50:11;26.03;;;18.73;;
78072;SDS011;67281;48.770;11.440;2024-02-28T04:52:42;26.53;;;19.67;;
78072;SDS011;67281;48.770;11.440;2024-02-28T04:55:14;27.47;;;20.27;;
78072;SDS011;67281;48.770;11.440;2024-02-28T04:57:45;29.13;;;21.53;;
78072;SDS011;67281;48.770;11.440;2024-02-28T05:00:15;29.73;;;21.07;;
78072;SDS011;67281;48.770;11.440;2024-02-28T05:02:46;30.17;;;20.97;;
78072;SDS011;67281;48.770;11.440;2024-02-28T05:05:16;25.83;;;19.70;;
78072;SDS011;67281;48.770;11.440;2024-02-28T05:07:46;29.57;;;21.60;;
78072;SDS011;67281;48.770;11.440;2024-02-28T05:10:18;24.40;;;17.60;;
78072;SDS011;67281;48.770;11.440;2024-02-28T05:12:48;27.83;;;20.93;;
78072;SDS011;67281;48.770;11.440;2024-02-28T05:15:19;25.67;;;19.10;;
78072;SDS011;67281;48.770;11.440;2024-02-28T05:17:50;27.43;;;20.03;;
78072;SDS011;67281;48.770;11.440;2024-02-28T05:20:20;26.97;;;20.97;;
78072;SDS011;67281;48.770;11.440;2024-02-28T05:22:51;28.80;;;21.27;;
78072;SDS011;67281;48.770;11.440;2024-02-28T05:25:27;27.13;;;19.67;;
78072;SDS011;67281;48.770;11.440;2024-02-28T05:27:57;26.57;;;19.30;;
78072;SDS011;67281;48.770;11.440;2024-02-28T05:30:27;29.00;;;21.07;;
78072;SDS011;67281;48.770;11.440;2024-02-28T05:32:57;26.57;;;18.60;;
78072;SDS011;67281;48.770;11.440;2024-02-28T05:35:27;25.10;;;19.43;;
78072;SDS011;67281;48.770;11.440;2024-02-28T05:37:58;29.02;;;20.67;;
78072;SDS011;67281;48.770;11.440;2024-02-28T05:40:32;32.47;;;21.90;;
78072;SDS011;67281;48.770;11.440;2024-02-28T05:43:02;26.10;;;18.60;;
78072;SDS011;67281;48.770;11.440;2024-02-28T05:45:32;30.00;;;21.77;;
78072;SDS011;67281;48.770;11.440;2024-02-28T05:48:02;29.63;;;21.33;;
78072;SDS011;67281;48.770;11.440;2024-02-28T05:50:32;29.10;;;21.40;;
78072;SDS011;67281;48.770;11.440;2024-02-28T05:53:02;28.80;;;21.10;;
78072;SDS011;67281;48.770;11.440;2024-02-28T05:55:35;31.67;;;22.83;;
78072;SDS011;67281;48.770;11.440;2024-02-28T05:58:06;31.93;;;22.13;;
78072;SDS011;67281;48.770;11.440;2024-02-28T06:00:36;31.50;;;22.10;;
78072;SDS011;67281;48.770;11.440;2024-02-28T06:03:06;31.10;;;20.90;;
78072;SDS011;67281;48.770;11.440;2024-02-28T06:05:36;27.07;;;19.73;;
78072;SDS011;67281;48.770;11.440;2024-02-28T06:08:09;30.57;;;21.80;;
78072;SDS011;67281;48.770;11.440;2024-02-28T06:10:42;32.57;;;22.93;;
78072;SDS011;67281;48.770;11.440;2024-02-28T06:13:13;32.67;;;23.23;;
78072;SDS011;67281;48.770;11.440;2024-02-28T06:15:45;30.90;;;22.93;;
78072;SDS011;67281;48.770;11.440;2024-02-28T06:18:15;32.10;;;22.00;;
78072;SDS011;67281;48.770;11.440;2024-02-28T06:20:45;31.03;;;21.53;;
78072;SDS011;67281;48.770;11.440;2024-02-28T06:23:15;30.47;;;21.97;;
78072;SDS011;67281;48.770;11.440;2024-02-28T06:25:57;32.03;;;22.30;;
78072;SDS011;67281;48.770;11.440;2024-02-28T06:28:27;32.93;;;22.83;;
78072;SDS011;67281;48.770;11.440;2024-02-28T06:30:59;28.40;;;20.73;;
78072;SDS011;67281;48.770;11.440;2024-02-28T06:33:29;31.53;;;21.67;;
78072;SDS011;67281;48.770;11.440;2024-02-28T06:35:59;30.10;;;20.57;;
78072;SDS011;67281;48.770;11.440;2024-02-28T06:38:29;29.90;;;21.10;;
78072;SDS011;67281;48.770;11.440;2024-02-28T06:41:02;31.63;;;22.17;;
78072;SDS011;67281;48.770;11.440;2024-02-28T06:43:33;30.83;;;22.13;;
78072;SDS011;67281;48.770;11.440;2024-02-28T06:46:05;28.97;;;20.40;;
78072;SDS011;67281;48.770;11.440;2024-02-28T06:48:36;28.70;;;19.83;;
78072;SDS011;67281;48.770;11.440;2024-02-28T06:51:06;33.10;;;23.00;;
78072;SDS011;67281;48.770;11.440;2024-02-28T06:53:36;29.13;;;21.73;;
78072;SDS011;67281;48.770;11.440;2024-02-28T06:56:10;26.03;;;17.90;;
78072;SDS011;67281;48.770;11.440;2024-02-28T06:58:40;30.30;;;21.07;;
78072;SDS011;67281;48.770;11.440;2024-02-28T07:01:10;30.33;;;21.87;;
78072;SDS011;67281;48.770;11.440;2024-02-28T07:03:40;29.97;;;20.43;;
78072;SDS011;67281;48.770;11.440;2024-02-28T07:06:10;32.93;;;22.23;;
78072;SDS011;67281;48.770;11.440;2024-02-28T07:08:41;29.03;;;21.60;;
78072;SDS011;67281;48.770;11.440;2024-02-28T07:11:15;32.30;;;20.63;;
78072;SDS011;67281;48.770;11.440;2024-02-28T07:13:46;30.90;;;21.73;;
78072;SDS011;67281;48.770;11.440;2024-02-28T07:16:16;31.77;;;21.77;;
78072;SDS011;67281;48.770;11.440;2024-02-28T07:18:46;28.80;;;20.43;;
78072;SDS011;67281;48.770;11.440;2024-02-28T07:21:16;27.50;;;20.43;;
78072;SDS011;67281;48.770;11.440;2024-02-28T07:23:46;30.33;;;20.70;;
78072;SDS011;67281;48.770;11.440;2024-02-28T07:26:19;29.00;;;20.93;;
78072;SDS011;67281;48.770;11.440;2024-02-28T07:28:53;32.73;;;21.97;;
78072;SDS011;67281;48.770;11.440;2024-02-28T07:31:23;32.43;;;20.60;;
78072;SDS011;67281;48.770;11.440;2024-02-28T07:33:54;31.93;;;22.20;;
78072;SDS011;67281;48.770;11.440;2024-02-28T07:36:24;33.35;;;22.17;;
78072;SDS011;67281;48.770;11.440;2024-02-28T07:38:54;32.73;;;22.03;;
78072;SDS011;67281;48.770;11.440;2024-02-28T07:41:27;30.47;;;21.37;;
78072;SDS011;67281;48.770;11.440;2024-02-28T07:43:57;32.72;;;22.00;;
78072;SDS011;67281;48.770;11.440;2024-02-28T07:46:27;33.10;;;23.40;;
78072;SDS011;67281;48.770;11.440;2024-02-28T07:48:58;31.73;;;21.83;;
78072;SDS011;67281;48.770;11.440;2024-02-28T07:51:28;31.75;;;21.55;;
78072;SDS011;67281;48.770;11.440;2024-02-28T07:53:59;34.23;;;22.20;;
78072;SDS011;67281;48.770;11.440;2024-02-28T07:56:32;32.78;;;23.05;;
78072;SDS011;67281;48.770;11.440;2024-02-28T07:59:01;33.80;;;23.50;;
78072;SDS011;67281;48.770;11.440;2024-02-28T08:01:32;33.30;;;23.10;;
78072;SDS011;67281;48.770;11.440;2024-02-28T08:04:03;34.05;;;22.83;;
78072;SDS011;67281;48.770;11.440;2024-02-28T08:06:33;31.83;;;21.57;;
78072;SDS011;67281;48.770;11.440;2024-02-28T08:09:03;37.33;;;22.87;;
78072;SDS011;67281;48.770;11.440;2024-02-28T08:11:41;35.10;;;23.03;;
78072;SDS011;67281;48.770;11.440;2024-02-28T08:14:11;32.67;;;20.77;;
78072;SDS011;67281;48.770;11.440;2024-02-28T08:16:41;31.17;;;21.23;;
78072;SDS011;67281;48.770;11.440;2024-02-28T08:19:11;30.52;;;20.40;;
78072;SDS011;67281;48.770;11.440;2024-02-28T08:21:41;32.93;;;22.43;;
78072;SDS011;67281;48.770;11.440;2024-02-28T08:24:12;34.87;;;21.83;;
78072;SDS011;67281;48.770;11.440;2024-02-28T08:26:45;32.03;;;20.23;;
78072;SDS011;67281;48.770;11.440;2024-02-28T08:29:15;31.23;;;21.40;;
78072;SDS011;67281;48.770;11.440;2024-02-28T08:31:45;32.45;;;20.80;;
78072;SDS011;67281;48.770;11.440;2024-02-28T08:34:15;35.50;;;22.60;;
78072;SDS011;67281;48.770;11.440;2024-02-28T08:36:48;31.73;;;21.93;;
78072;SDS011;67281;48.770;11.440;2024-02-28T08:39:18;33.93;;;22.47;;
78072;SDS011;67281;48.770;11.440;2024-02-28T08:41:52;37.30;;;24.30;;
78072;SDS011;67281;48.770;11.440;2024-02-28T08:44:23;36.57;;;22.83;;
78072;SDS011;67281;48.770;11.440;2024-02-28T08:46:53;33.95;;;21.10;;
78072;SDS011;67281;48.770;11.440;2024-02-28T08:49:23;31.58;;;21.95;;
78072;SDS011;67281;48.770;11.440;2024-02-28T08:51:53;31.00;;;21.83;;
78072;SDS011;67281;48.770;11.440;2024-02-28T08:54:24;29.33;;;20.65;;
78072;SDS011;67281;48.770;11.440;2024-02-28T08:56:57;33.72;;;23.25;;
78072;SDS011;67281;48.770;11.440;2024-02-28T08:59:30;32.77;;;22.37;;
78072;SDS011;67281;48.770;11.440;2024-02-28T09:02:00;32.97;;;21.97;;
78072;SDS011;67281;48.770;11.440;2024-02-28T09:04:30;34.70;;;24.13;;
78072;SDS011;67281;48.770;11.440;2024-02-28T09:07:00;33.70;;;22.63;;
78072;SDS011;67281;48.770;11.440;2024-02-28T09:09:31;33.10;;;23.27;;
78072;SDS011;67281;48.770;11.440;2024-02-28T09:12:08;32.33;;;22.47;;
78072;SDS011;67281;48.770;11.440;2024-02-28T09:14:38;31.30;;;21.63;;
78072;SDS011;67281;48.770;11.440;2024-02-28T09:17:08;35.05;;;22.35;;
78072;SDS011;67281;48.770;11.440;2024-02-28T09:19:38;33.42;;;21.45;;
78072;SDS011;67281;48.770;11.440;2024-02-28T09:22:08;33.37;;;22.47;;
78072;SDS011;67281;48.770;11.440;2024-02-28T09:24:38;34.90;;;23.87;;
78072;SDS011;67281;48.770;11.440;2024-02-28T09:27:08;35.50;;;25.20;;
78072;SDS011;67281;48.770;11.440;2024-02-28T09:29:39;40.17;;;25.57;;
78072;SDS011;67281;48.770;11.440;2024-02-28T09:32:09;36.17;;;24.63;;
78072;SDS011;67281;48.770;11.440;2024-02-28T09:34:41;35.07;;;22.03;;
78072;SDS011;67281;48.770;11.440;2024-02-28T09:37:11;37.20;;;24.80;;
78072;SDS011;67281;48.770;11.440;2024-02-28T09:39:44;39.57;;;25.97;;
78072;SDS011;67281;48.770;11.440;2024-02-28T09:42:17;37.77;;;24.70;;
78072;SDS011;67281;48.770;11.440;2024-02-28T09:44:48;38.13;;;24.07;;
78072;SDS011;67281;48.770;11.440;2024-02-28T09:47:18;42.33;;;25.47;;
78072;SDS011;67281;48.770;11.440;2024-02-28T09:49:49;37.10;;;24.43;;
78072;SDS011;67281;48.770;11.440;2024-02-28T09:52:21;36.33;;;22.77;;
78072;SDS011;67281;48.770;11.440;2024-02-28T09:54:51;34.60;;;22.43;;
78072;SDS011;67281;48.770;11.440;2024-02-28T09:57:24;34.57;;;22.13;;
78072;SDS011;67281;48.770;11.440;2024-02-28T09:59:57;32.77;;;21.77;;
78072;SDS011;67281;48.770;11.440;2024-02-28T10:02:31;34.50;;;22.07;;
78072;SDS011;67281;48.770;11.440;2024-02-28T10:05:03;33.17;;;22.60;;
78072;SDS011;67281;48.770;11.440;2024-02-28T10:07:35;29.10;;;18.90;;
78072;SDS011;67281;48.770;11.440;2024-02-28T10:10:05;35.70;;;23.38;;
78072;SDS011;67281;48.770;11.440;2024-02-28T10:12:42;35.47;;;23.07;;
78072;SDS011;67281;48.770;11.440;2024-02-28T10:15:13;32.93;;;21.30;;
78072;SDS011;67281;48.770;11.440;2024-02-28T10:17:44;35.23;;;22.73;;
78072;SDS011;67281;48.770;11.440;2024-02-28T10:20:14;33.27;;;22.00;;
78072;SDS011;67281;48.770;11.440;2024-02-28T10:22:44;32.70;;;21.67;;
78072;SDS011;67281;48.770;11.440;2024-02-28T10:25:14;31.40;;;20.97;;
78072;SDS011;67281;48.770;11.440;2024-02-28T10:27:49;29.73;;;19.23;;
78072;SDS011;67281;48.770;11.440;2024-02-28T10:30:19;32.05;;;20.13;;
78072;SDS011;67281;48.770;11.440;2024-02-28T10:32:49;31.88;;;19.60;;
78072;SDS011;67281;48.770;11.440;2024-02-28T10:35:20;27.70;;;19.33;;
78072;SDS011;67281;48.770;11.440;2024-02-28T10:37:52;27.97;;;18.73;;
78072;SDS011;67281;48.770;11.440;2024-02-28T10:40:23;29.02;;;20.20;;
78072;SDS011;67281;48.770;11.440;2024-02-28T10:42:56;27.13;;;19.47;;
78072;SDS011;67281;48.770;11.440;2024-02-28T10:45:27;27.50;;;19.63;;
78072;SDS011;67281;48.770;11.440;2024-02-28T10:48:20;26.37;;;18.80;;
78072;SDS011;67281;48.770;11.440;2024-02-28T10:50:51;23.75;;;16.85;;
78072;SDS011;67281;48.770;11.440;2024-02-28T10:53:22;25.03;;;17.67;;
78072;SDS011;67281;48.770;11.440;2024-02-28T10:56:02;25.02;;;17.33;;
78072;SDS011;67281;48.770;11.440;2024-02-28T10:58:42;25.20;;;17.50;;
78072;SDS011;67281;48.770;11.440;2024-02-28T11:01:20;29.73;;;19.05;;
78072;SDS011;67281;48.770;11.440;2024-02-28T11:03:50;23.10;;;16.88;;
78072;SDS011;67281;48.770;11.440;2024-02-28T11:06:21;27.30;;;17.73;;
78072;SDS011;67281;48.770;11.440;2024-02-28T11:08:52;24.85;;;18.73;;
78072;SDS011;67281;48.770;11.440;2024-02-28T11:11:23;26.73;;;19.05;;
78072;SDS011;67281;48.770;11.440;2024-02-28T11:13:56;25.98;;;18.02;;
78072;SDS011;67281;48.770;11.440;2024-02-28T11:16:28;23.95;;;17.50;;
78072;SDS011;67281;48.770;11.440;2024-02-28T11:19:00;25.90;;;18.63;;
78072;SDS011;67281;48.770;11.440;2024-02-28T11:21:33;27.00;;;17.90;;
78072;SDS011;67281;48.770;11.440;2024-02-28T11:24:05;26.08;;;18.10;;
78072;SDS011;67281;48.770;11.440;2024-02-28T11:26:36;26.13;;;18.07;;
78072;SDS011;67281;48.770;11.440;2024-02-28T11:29:09;25.33;;;17.47;;
78072;SDS011;67281;48.770;11.440;2024-02-28T11:31:39;24.92;;;17.10;;
78072;SDS011;67281;48.770;11.440;2024-02-28T11:34:10;22.20;;;16.58;;
78072;SDS011;67281;48.770;11.440;2024-02-28T11:36:40;23.58;;;16.33;;
78072;SDS011;67281;48.770;11.440;2024-02-28T11:39:10;24.93;;;17.47;;
78072;SDS011;67281;48.770;11.440;2024-02-28T11:41:42;23.40;;;16.75;;
78072;SDS011;67281;48.770;11.440;2024-02-28T11:44:18;24.63;;;17.42;;
78072;SDS011;67281;48.770;11.440;2024-02-28T11:46:49;21.95;;;15.95;;
78072;SDS011;67281;48.770;11.440;2024-02-28T11:49:19;23.08;;;16.85;;
78072;SDS011;67281;48.770;11.440;2024-02-28T11:51:49;22.88;;;16.45;;
78072;SDS011;67281;48.770;11.440;2024-02-28T11:54:19;24.98;;;17.20;;
78072;SDS011;67281;48.770;11.440;2024-02-28T11:56:50;22.75;;;16.08;;
78072;SDS011;67281;48.770;11.440;2024-02-28T11:59:25;22.87;;;16.00;;
78072;SDS011;67281;48.770;11.440;2024-02-28T12:01:55;24.60;;;16.48;;
78072;SDS011;67281;48.770;11.440;2024-02-28T12:04:25;21.13;;;15.60;;
78072;SDS011;67281;48.770;11.440;2024-02-28T12:06:56;20.25;;;14.57;;
78072;SDS011;67281;48.770;11.440;2024-02-28T12:09:27;21.02;;;15.57;;
78072;SDS011;67281;48.770;11.440;2024-02-28T12:12:07;20.98;;;14.95;;
78072;SDS011;67281;48.770;11.440;2024-02-28T12:14:40;19.08;;;14.30;;
78072;SDS011;67281;48.770;11.440;2024-02-28T12:17:11;19.73;;;14.73;;
78072;SDS011;67281;48.770;11.440;2024-02-28T12:19:43;21.50;;;14.35;;
78072;SDS011;67281;48.770;11.440;2024-02-28T12:22:13;20.38;;;15.48;;
78072;SDS011;67281;48.770;11.440;2024-02-28T12:24:44;22.35;;;15.32;;
78072;SDS011;67281;48.770;11.440;2024-02-28T12:27:14;21.65;;;14.85;;
78072;SDS011;67281;48.770;11.440;2024-02-28T12:29:47;20.83;;;16.35;;
78072;SDS011;67281;48.770;11.440;2024-02-28T12:32:17;24.90;;;15.45;;
78072;SDS011;67281;48.770;11.440;2024-02-28T12:34:47;20.45;;;14.98;;
78072;SDS011;67281;48.770;11.440;2024-02-28T12:37:17;19.35;;;13.98;;
78072;SDS011;67281;48.770;11.440;2024-02-28T12:39:48;20.90;;;15.43;;
78072;SDS011;67281;48.770;11.440;2024-02-28T12:42:18;21.63;;;15.13;;
78072;SDS011;67281;48.770;11.440;2024-02-28T12:44:51;22.87;;;16.70;;
78072;SDS011;67281;48.770;11.440;2024-02-28T12:47:21;21.05;;;14.98;;
78072;SDS011;67281;48.770;11.440;2024-02-28T12:49:51;20.02;;;13.95;;
78072;SDS011;67281;48.770;11.440;2024-02-28T12:52:22;20.05;;;14.68;;
78072;SDS011;67281;48.770;11.440;2024-02-28T12:54:53;18.88;;;13.75;;
78072;SDS011;67281;48.770;11.440;2024-02-28T12:57:23;20.83;;;14.60;;
78072;SDS011;67281;48.770;11.440;2024-02-28T12:59:55;20.33;;;14.40;;
78072;SDS011;67281;48.770;11.440;2024-02-28T13:02:25;19.48;;;14.20;;
78072;SDS011;67281;48.770;11.440;2024-02-28T13:04:56;21.48;;;15.07;;
78072;SDS011;67281;48.770;11.440;2024-02-28T13:07:27;19.75;;;14.57;;
78072;SDS011;67281;48.770;11.440;2024-02-28T13:09:57;20.70;;;13.40;;
78072;SDS011;67281;48.770;11.440;2024-02-28T13:12:27;24.63;;;14.13;;
78072;SDS011;67281;48.770;11.440;2024-02-28T13:15:00;21.75;;;15.35;;
78072;SDS011;67281;48.770;11.440;2024-02-28T13:17:32;23.08;;;16.50;;
78072;SDS011;67281;48.770;11.440;2024-02-28T13:20:02;25.85;;;16.88;;
78072;SDS011;67281;48.770;11.440;2024-02-28T13:22:32;26.15;;;17.25;;
78072;SDS011;67281;48.770;11.440;2024-02-28T13:25:03;23.33;;;16.92;;
78072;SDS011;67281;48.770;11.440;2024-02-28T13:27:34;26.25;;;16.75;;
78072;SDS011;67281;48.770;11.440;2024-02-28T13:30:08;24.33;;;16.05;;
78072;SDS011;67281;48.770;11.440;2024-02-28T13:32:38;23.65;;;15.95;;
78072;SDS011;67281;48.770;11.440;2024-02-28T13:35:11;23.17;;;15.93;;
78072;SDS011;67281;48.770;11.440;2024-02-28T13:37:41;20.20;;;13.15;;
78072;SDS011;67281;48.770;11.440;2024-02-28T13:40:12;24.17;;;15.07;;
78072;SDS011;67281;48.770;11.440;2024-02-28T13:42:42;21.70;;;15.13;;
78072;SDS011;67281;48.770;11.440;2024-02-28T13:45:15;22.27;;;15.32;;
78072;SDS011;67281;48.770;11.440;2024-02-28T13:47:45;21.90;;;15.60;;
78072;SDS011;67281;48.770;11.440;2024-02-28T13:50:15;22.60;;;15.95;;
78072;SDS011;67281;48.770;11.440;2024-02-28T13:52:45;24.83;;;16.52;;
78072;SDS011;67281;48.770;11.440;2024-02-28T13:55:15;24.02;;;16.73;;
78072;SDS011;67281;48.770;11.440;2024-02-28T13:57:46;24.10;;;16.00;;
78072;SDS011;67281;48.770;11.440;2024-02-28T14:00:19;23.55;;;15.65;;
78072;SDS011;67281;48.770;11.440;2024-02-28T14:02:50;23.52;;;14.73;;
78072;SDS011;67281;48.770;11.440;2024-02-28T14:05:20;23.15;;;13.85;;
78072;SDS011;67281;48.770;11.440;2024-02-28T14:07:50;21.70;;;15.15;;
78072;SDS011;67281;48.770;11.440;2024-02-28T14:10:21;20.90;;;15.02;;
78072;SDS011;67281;48.770;11.440;2024-02-28T14:12:51;22.40;;;16.08;;
78072;SDS011;67281;48.770;11.440;2024-02-28T14:15:25;24.20;;;16.20;;
78072;SDS011;67281;48.770;11.440;2024-02-28T14:17:55;23.58;;;15.13;;
78072;SDS011;67281;48.770;11.440;2024-02-28T14:20:26;23.20;;;14.90;;
78072;SDS011;67281;48.770;11.440;2024-02-28T14:22:56;21.10;;;15.87;;
78072;SDS011;67281;48.770;11.440;2024-02-28T14:25:26;22.77;;;15.85;;
78072;SDS011;67281;48.770;11.440;2024-02-28T14:27:58;22.03;;;16.07;;
78072;SDS011;67281;48.770;11.440;2024-02-28T14:30:31;24.70;;;17.17;;